Time;durP1;ratioP1;P1;durP2;ratioP2;P2;SDS_P1;SDS_P2;PMS_P1;PMS_P2;Temp;Humidity;BMP_temperature;BMP_pressure;BME280_temperature;BME280_humidity;BME280_pressure;Samples;Min_cycle;Max_cycle;Signal;HPM_P1;HPM_P2
2021/11/06 08:34:44;;;;;;;4.93;2.90;;;;;;;4.44;100.00;100354.25;5108873;28;20556;-84
2021/11/06 08:37:12;;;;;;;3.33;2.17;;;;;;;4.76;100.00;100340.63;5124229;27;38592;-83
2021/11/06 08:39:40;;;;;;;3.97;2.23;;;;;;;5.09;100.00;100339.22;5090282;28;40936;-82
2021/11/06 08:42:08;;;;;;;3.17;2.23;;;;;;;5.43;100.00;100328.16;5106997;28;42116;-83
2021/11/06 08:44:36;;;;;;;3.77;2.50;;;;;;;5.74;96.61;100355.59;5089429;28;41444;-82
2021/11/06 08:47:04;;;;;;;6.47;3.50;;;;;;;5.90;93.68;100350.94;5120368;27;38892;-82
2021/11/06 08:49:32;;;;;;;3.13;2.13;;;;;;;6.11;91.60;100337.34;5089441;28;42108;-83
2021/11/06 08:52:02;;;;;;;3.37;2.53;;;;;;;6.48;90.15;100348.81;5084078;28;41831;-83
2021/11/06 08:54:29;;;;;;;4.57;2.60;;;;;;;6.73;89.06;100356.16;5102160;28;43133;-82
2021/11/06 08:56:59;;;;;;;5.33;2.60;;;;;;;6.75;87.74;100339.44;5087918;28;38913;-82
2021/11/06 08:59:26;;;;;;;3.57;1.80;;;;;;;7.00;87.11;100357.28;5086342;28;40720;-82
2021/11/06 09:01:56;;;;;;;3.90;2.30;;;;;;;7.08;86.45;100356.19;5086980;28;41761;-83
2021/11/06 09:04:24;;;;;;;2.77;2.37;;;;;;;7.21;86.07;100355.00;5086745;28;42151;-83
2021/11/06 09:06:53;;;;;;;3.87;2.07;;;;;;;7.30;85.42;100355.66;5087403;28;39938;-83
2021/11/06 09:09:22;;;;;;;2.67;2.00;;;;;;;7.24;84.48;100340.88;5085750;28;41722;-83
2021/11/06 09:11:51;;;;;;;4.50;2.43;;;;;;;7.32;84.59;100345.94;5086969;28;42968;-83
2021/11/06 09:14:19;;;;;;;3.07;2.60;;;;;;;7.40;84.25;100334.31;5087645;28;41612;-83
2021/11/06 09:16:47;;;;;;;3.97;2.50;;;;;;;7.55;83.86;100336.53;5087061;28;39297;-82
2021/11/06 09:19:15;;;;;;;4.07;2.77;;;;;;;7.63;83.61;100343.41;5082529;28;41844;-82
2021/11/06 09:21:44;;;;;;;5.03;3.07;;;;;;;7.64;81.70;100353.03;5089410;28;43145;-82
2021/11/06 09:24:12;;;;;;;4.87;2.23;;;;;;;7.66;81.67;100351.22;5086337;28;41392;-83
2021/11/06 09:26:44;;;;;;;4.13;2.30;;;;;;;7.63;81.29;100351.31;5086476;28;39082;-83
2021/11/06 09:29:13;;;;;;;4.07;2.03;;;;;;;7.59;81.13;100334.69;5087259;28;41813;-83
2021/11/06 09:31:41;;;;;;;3.87;2.13;;;;;;;7.60;81.64;100335.56;5086396;28;41869;-83
2021/11/06 09:34:11;;;;;;;3.70;2.37;;;;;;;7.71;80.54;100344.91;5104018;28;41021;-83
2021/11/06 09:36:39;;;;;;;3.00;2.07;;;;;;;7.76;81.07;100332.47;5087248;28;39082;-83
2021/11/06 09:39:10;;;;;;;4.77;3.23;;;;;;;7.92;80.06;100348.72;5085361;28;42297;-84
2021/11/06 09:41:39;;;;;;;3.03;2.13;;;;;;;8.05;80.38;100349.25;5086516;28;41816;-83
2021/11/06 09:44:08;;;;;;;3.97;2.40;;;;;;;8.15;80.25;100354.25;5084312;28;42323;-85
2021/11/06 09:46:36;;;;;;;5.07;2.40;;;;;;;8.09;79.96;100341.22;5071363;28;40321;-82
2021/11/06 09:49:04;;;;;;;3.90;2.30;;;;;;;8.23;79.97;100365.44;5073624;28;42006;-84
2021/11/06 09:51:32;;;;;;;5.40;2.23;;;;;;;8.15;79.33;100348.97;5073640;28;41806;-84
2021/11/06 09:54:00;;;;;;;3.40;3.10;;;;;;;8.18;78.81;100348.84;5089392;28;43999;-83
2021/11/06 09:56:29;;;;;;;3.67;2.50;;;;;;;8.36;78.83;100363.34;5072986;28;39963;-82
2021/11/06 09:59:00;;;;;;;3.17;2.40;;;;;;;8.54;78.70;100375.97;5091228;28;41784;-83
2021/11/06 10:01:30;;;;;;;2.73;2.27;;;;;;;8.56;78.53;100365.38;5074751;28;41922;-82
2021/11/06 10:03:58;;;;;;;3.10;2.10;;;;;;;8.61;78.80;100372.25;5075369;28;40995;-82
2021/11/06 10:06:27;;;;;;;4.17;2.43;;;;;;;8.63;78.35;100351.09;5073171;28;38845;-84
2021/11/06 10:08:56;;;;;;;2.60;2.07;;;;;;;8.81;78.59;100365.47;5074314;28;40684;-82
2021/11/06 10:11:28;;;;;;;3.33;2.40;;;;;;;8.80;77.83;100356.69;5073570;28;42049;-82
2021/11/06 10:13:57;;;;;;;3.60;2.80;;;;;;;8.95;77.63;100369.41;5073838;28;41429;-82
2021/11/06 10:16:33;;;;;;;3.37;2.67;;;;;;;9.01;77.44;100368.38;5073844;28;38707;-82
2021/11/06 10:19:07;;;;;;;3.30;2.70;;;;;;;9.05;76.44;100359.41;5091004;28;41857;-82
2021/11/06 10:21:36;;;;;;;3.93;2.53;;;;;;;8.99;75.50;100349.94;5108009;28;42886;-82
2021/11/06 10:24:03;;;;;;;3.80;2.43;;;;;;;9.20;75.63;100368.63;5091435;28;42338;-83
2021/11/06 10:26:31;;;;;;;4.37;2.53;;;;;;;9.29;75.86;100360.38;5073165;28;39194;-83
2021/11/06 10:29:10;;;;;;;4.87;2.80;;;;;;;9.35;75.39;100366.34;5074469;28;40760;-83
2021/11/06 10:32:04;;;;;;;4.27;2.77;;;;;;;9.45;75.19;100361.63;5074731;28;41629;-83
2021/11/06 10:34:37;;;;;;;3.33;2.40;;;;;;;9.56;75.07;100353.31;5084555;28;44889;-82
2021/11/06 10:37:10;;;;;;;5.53;3.23;;;;;;;9.65;74.99;100347.69;5053948;28;39298;-82
2021/11/06 10:39:38;;;;;;;4.20;3.17;;;;;;;9.80;74.56;100348.94;5063013;28;41706;-82
2021/11/06 10:42:11;;;;;;;4.50;2.67;;;;;;;9.84;74.00;100355.88;5089979;28;42270;-82
2021/11/06 10:44:40;;;;;;;5.83;3.47;;;;;;;9.75;73.64;100337.69;5070749;28;42196;-83
2021/11/06 10:47:10;;;;;;;4.60;3.50;;;;;;;9.82;73.44;100329.44;5063500;28;39212;-82
2021/11/06 10:49:40;;;;;;;5.27;2.67;;;;;;;9.97;73.33;100328.91;5073918;28;40688;-82
2021/11/06 10:52:10;;;;;;;4.50;3.10;;;;;;;10.13;73.21;100342.44;5074148;28;41941;-82
2021/11/06 10:54:58;;;;;;;6.07;3.53;;;;;;;10.21;72.42;100345.69;5074202;28;41174;-82
2021/11/06 10:57:26;;;;;;;5.63;3.57;;;;;;;10.23;72.40;100335.06;5066755;28;40977;-82
2021/11/06 11:00:10;;;;;;;5.30;3.17;;;;;;;10.20;71.78;100328.09;5054484;28;42065;-83
2021/11/06 11:02:39;;;;;;;6.23;4.10;;;;;;;10.32;71.82;100330.25;5053415;28;41529;-82
2021/11/06 11:05:35;;;;;;;6.27;3.57;;;;;;;10.38;71.58;100324.75;5056073;28;41093;-83
2021/11/06 11:08:05;;;;;;;6.23;3.90;;;;;;;10.48;71.48;100313.78;5070861;28;39577;-83
2021/11/06 11:10:32;;;;;;;8.07;3.50;;;;;;;10.48;71.13;100314.66;5057933;28;40567;-83
2021/11/06 11:13:11;;;;;;;8.17;4.20;;;;;;;10.53;71.07;100317.09;5066468;28;41718;-82
2021/11/06 11:15:40;;;;;;;7.80;3.60;;;;;;;10.52;71.43;100283.59;5090786;28;43054;-83
2021/11/06 11:18:29;;;;;;;6.67;3.20;;;;;;;10.61;71.34;100285.91;5073560;28;38898;-84
2021/11/06 11:21:12;;;;;;;7.03;3.37;;;;;;;10.77;71.16;100301.09;5091205;28;41908;-83
2021/11/06 11:23:40;;;;;;;6.43;3.60;;;;;;;10.85;70.95;100299.94;5090386;28;41798;-82
2021/11/06 11:26:08;;;;;;;8.00;4.57;;;;;;;10.79;70.59;100277.19;5050365;28;42515;-84
2021/11/06 11:28:36;;;;;;;8.27;4.70;;;;;;;10.85;70.22;100276.97;5050657;28;39610;-84
2021/11/06 11:31:04;;;;;;;9.43;4.13;;;;;;;10.99;70.34;100285.22;5087688;28;42072;-82
2021/11/06 11:33:35;;;;;;;6.83;4.10;;;;;;;11.06;70.45;100280.50;5052620;28;43034;-82
2021/11/06 11:36:04;;;;;;;6.47;3.80;;;;;;;11.15;70.67;100274.81;5053863;28;41084;-83
2021/11/06 11:38:32;;;;;;;5.67;4.17;;;;;;;11.00;69.56;100252.44;5071885;28;39672;-82
2021/11/06 11:41:24;;;;;;;6.60;4.23;;;;;;;11.06;70.07;100259.28;5072543;28;41914;-82
2021/11/06 11:44:02;;;;;;;6.93;4.27;;;;;;;11.10;69.87;100260.91;5088322;28;41981;-82
2021/11/06 11:46:39;;;;;;;6.70;4.13;;;;;;;11.23;69.83;100271.84;5065376;28;41442;-82
2021/11/06 11:49:10;;;;;;;9.10;5.23;;;;;;;11.20;69.24;100246.31;5073465;28;39066;-84
2021/11/06 11:51:37;;;;;;;7.80;4.23;;;;;;;11.35;69.26;100260.72;5067021;28;41553;-85
2021/11/06 11:54:06;;;;;;;6.47;4.20;;;;;;;11.34;69.14;100243.94;5053148;28;41726;-84
2021/11/06 11:56:35;;;;;;;7.90;4.37;;;;;;;11.45;69.33;100246.13;5068382;28;41151;-82
2021/11/06 11:59:04;;;;;;;5.90;3.57;;;;;;;11.52;69.55;100236.94;5073600;28;39048;-82
2021/11/06 12:01:33;;;;;;;4.97;3.73;;;;;;;11.57;69.45;100226.13;5059795;28;41910;-83
2021/11/06 12:04:18;;;;;;;8.00;4.43;;;;;;;11.59;69.40;100219.84;5052425;28;41444;-82
2021/11/06 12:06:46;;;;;;;7.73;4.30;;;;;;;11.74;68.98;100232.44;5069357;28;41301;-83
2021/11/06 12:09:23;;;;;;;8.33;4.07;;;;;;;11.69;68.40;100223.78;5065513;28;40138;-82
2021/11/06 12:11:53;;;;;;;5.97;3.87;;;;;;;11.69;68.41;100226.44;5050201;28;41764;-83
2021/11/06 12:14:22;;;;;;;7.17;4.43;;;;;;;11.72;68.91;100239.59;5052610;28;41744;-84
2021/11/06 12:16:56;;;;;;;4.63;3.80;;;;;;;11.71;68.96;100227.25;5072947;28;41160;-82
2021/11/06 12:19:36;;;;;;;7.60;4.47;;;;;;;11.66;69.03;100220.41;5071252;28;38557;-83
2021/11/06 12:22:10;;;;;;;4.77;3.33;;;;;;;11.66;69.32;100229.22;5069140;28;41690;-84
2021/11/06 12:24:39;;;;;;;5.73;3.50;;;;;;;11.63;69.13;100220.53;5055443;28;41654;-83
2021/11/06 12:27:09;;;;;;;5.80;4.23;;;;;;;11.59;68.90;100213.66;5073059;28;41111;-85
2021/11/06 12:29:48;;;;;;;5.97;4.37;;;;;;;11.45;69.11;100198.38;5089499;28;40014;-84
2021/11/06 12:32:31;;;;;;;8.03;4.13;;;;;;;11.53;68.90;100215.66;5072141;28;40641;-85
2021/11/06 12:35:17;;;;;;;5.43;3.73;;;;;;;11.50;69.30;100213.13;5072312;28;41595;-81
2021/11/06 12:37:51;;;;;;;6.67;3.80;;;;;;;11.53;69.37;100217.44;5072991;28;40755;-81
2021/11/06 12:40:23;;;;;;;4.53;3.80;;;;;;;11.40;68.66;100201.22;5067544;28;40082;-82
2021/11/06 12:43:12;;;;;;;4.30;3.40;;;;;;;11.46;68.76;100210.69;5085364;28;40635;-82
2021/11/06 12:45:44;;;;;;;5.87;3.37;;;;;;;11.41;68.70;100196.78;5062498;28;42874;-82
2021/11/06 12:48:14;;;;;;;3.97;3.47;;;;;;;11.54;69.13;100211.22;5052266;28;42181;-83
2021/11/06 12:50:45;;;;;;;4.63;3.33;;;;;;;11.63;69.08;100196.66;5095354;28;38863;-83
2021/11/06 12:53:26;;;;;;;4.90;3.70;;;;;;;11.56;68.59;100185.47;5072286;28;40777;-82
2021/11/06 12:56:01;;;;;;;3.67;3.17;;;;;;;11.66;68.67;100197.38;5070532;28;42766;-84
2021/11/06 12:58:29;;;;;;;4.10;3.37;;;;;;;11.65;68.76;100200.97;5072281;28;41998;-84
2021/11/06 13:00:56;;;;;;;3.10;2.63;;;;;;;11.64;68.44;100201.03;5089289;28;40861;-83
2021/11/06 13:03:39;;;;;;;4.60;3.70;;;;;;;11.63;68.28;100202.81;5071912;28;42106;-83
2021/11/06 13:06:27;;;;;;;4.67;3.77;;;;;;;11.55;68.53;100199.66;5068237;28;43125;-84
2021/11/06 13:09:17;;;;;;;3.97;2.87;;;;;;;11.40;68.76;100182.63;5051789;28;41356;-82
2021/11/06 13:12:01;;;;;;;4.40;3.23;;;;;;;11.53;68.80;100198.88;5103989;28;38926;-86
2021/11/06 13:14:41;;;;;;;3.17;2.87;;;;;;;11.44;68.27;100180.72;5070823;28;41501;-84
2021/11/06 13:17:12;;;;;;;3.90;3.07;;;;;;;11.48;68.67;100193.78;5105558;28;41600;-83
2021/11/06 13:19:54;;;;;;;3.67;3.17;;;;;;;11.23;68.47;100155.16;5071866;28;42232;-85
2021/11/06 13:22:56;;;;;;;4.73;2.80;;;;;;;11.53;69.03;100186.47;5076763;28;38934;-84
2021/11/06 13:25:26;;;;;;;3.27;2.83;;;;;;;11.51;68.57;100183.00;4997170;28;41671;-86
2021/11/06 13:27:56;;;;;;;3.00;2.50;;;;;;;11.41;68.59;100163.16;5060363;28;41586;-84
2021/11/06 13:30:41;;;;;;;3.33;3.03;;;;;;;11.51;68.83;100180.38;5074311;28;41072;-83
2021/11/06 13:33:12;;;;;;;5.60;3.00;;;;;;;11.49;68.86;100166.34;5074521;28;40252;-83
2021/11/06 13:35:42;;;;;;;3.40;3.10;;;;;;;11.53;68.88;100164.38;5074208;28;40878;-85
2021/11/06 13:38:32;;;;;;;4.07;2.63;;;;;;;11.54;68.84;100163.44;5075026;28;42881;-83
2021/11/06 13:41:03;;;;;;;3.47;2.87;;;;;;;11.51;68.62;100167.09;5071110;28;42155;-82
2021/11/06 13:43:33;;;;;;;3.40;2.97;;;;;;;11.51;68.71;100163.59;5053888;28;38920;-84
2021/11/06 13:46:03;;;;;;;4.10;3.30;;;;;;;11.38;68.45;100127.94;5053703;28;40805;-84
2021/11/06 13:48:33;;;;;;;3.60;3.13;;;;;;;11.50;67.69;100143.28;5070658;28;42559;-83
2021/11/06 13:51:11;;;;;;;3.43;3.07;;;;;;;11.57;67.65;100134.13;5068366;28;41190;-82
2021/11/06 13:53:40;;;;;;;3.53;2.90;;;;;;;11.65;67.68;100147.03;5073318;28;38997;-84
2021/11/06 13:56:08;;;;;;;4.53;2.37;;;;;;;11.74;67.82;100147.50;5074592;28;40518;-84
2021/11/06 13:58:36;;;;;;;4.17;2.40;;;;;;;11.81;67.60;100137.47;5074539;28;42229;-83
2021/11/06 14:01:03;;;;;;;3.07;2.60;;;;;;;11.93;67.02;100149.31;5074445;28;42795;-83
2021/11/06 14:03:31;;;;;;;3.20;2.70;;;;;;;11.97;67.49;100132.31;5053588;28;40707;-82
2021/11/06 14:05:59;;;;;;;4.37;2.77;;;;;;;12.15;66.43;100147.34;5054541;28;40410;-81
2021/11/06 14:08:27;;;;;;;3.47;2.60;;;;;;;12.31;66.33;100137.69;5070900;28;41938;-84
2021/11/06 14:11:04;;;;;;;3.07;2.70;;;;;;;12.40;65.88;100139.88;5072637;28;42133;-83
2021/11/06 14:13:33;;;;;;;5.27;2.70;;;;;;;12.28;66.01;100121.03;5074247;28;39599;-82
2021/11/06 14:16:14;;;;;;;2.77;2.57;;;;;;;12.31;66.42;100119.09;5090974;28;42463;-83
2021/11/06 14:18:45;;;;;;;4.10;2.63;;;;;;;12.80;65.97;100124.59;5074055;28;42773;-83
2021/11/06 14:21:18;;;;;;;4.07;2.97;;;;;;;13.26;64.54;100117.75;5090771;28;43085;-83
2021/11/06 14:23:46;;;;;;;3.13;2.50;;;;;;;13.14;64.47;100127.25;5074486;28;40051;-85
2021/11/06 14:26:17;;;;;;;3.27;2.97;;;;;;;12.59;63.79;100087.56;5107763;28;40820;-84
2021/11/06 14:28:50;;;;;;;3.20;2.90;;;;;;;12.67;64.49;100120.84;5090722;28;43168;-84
2021/11/06 14:31:28;;;;;;;4.00;3.07;;;;;;;12.48;64.59;100108.50;5072930;28;43737;-82
2021/11/06 14:33:56;;;;;;;3.43;3.13;;;;;;;12.41;65.21;100116.84;5073836;28;39345;-83
2021/11/06 14:36:26;;;;;;;6.47;3.70;;;;;;;12.22;65.26;100106.28;5091095;28;42874;-84
2021/11/06 14:39:03;;;;;;;4.40;3.17;;;;;;;11.93;65.85;100091.75;5073932;28;41800;-85
2021/11/06 14:41:43;;;;;;;4.40;3.00;;;;;;;11.84;66.13;100101.03;5073667;28;41145;-82
2021/11/06 14:44:11;;;;;;;4.60;4.10;;;;;;;11.67;66.60;100081.50;5073364;28;38984;-87
2021/11/06 14:46:45;;;;;;;3.87;3.43;;;;;;;11.58;66.67;100084.59;5074162;28;41044;-84
2021/11/06 14:49:14;;;;;;;4.77;3.70;;;;;;;11.51;66.94;100097.25;5073181;28;42173;-82
2021/11/06 14:51:54;;;;;;;4.50;3.30;;;;;;;11.37;67.16;100081.16;5089361;28;41106;-84
2021/11/06 14:54:22;;;;;;;6.00;3.60;;;;;;;11.17;67.52;100076.75;5100913;28;40062;-83
2021/11/06 14:56:52;;;;;;;7.13;3.90;;;;;;;11.03;67.69;100069.41;5053580;28;40776;-84
2021/11/06 14:59:29;;;;;;;5.47;3.10;;;;;;;10.94;68.36;100075.13;5055812;28;41368;-85
2021/11/06 15:01:58;;;;;;;4.00;3.07;;;;;;;10.77;68.55;100062.59;5054224;28;41029;-82
2021/11/06 15:04:40;;;;;;;6.47;4.37;;;;;;;10.65;69.28;100062.28;5076699;28;40720;-82
2021/11/06 15:07:08;;;;;;;5.87;4.03;;;;;;;10.51;69.40;100060.22;5073546;28;41633;-85
2021/11/06 15:09:36;;;;;;;4.80;3.37;;;;;;;10.37;69.65;100055.56;5088183;28;43676;-84
2021/11/06 15:12:06;;;;;;;5.30;4.10;;;;;;;10.25;70.46;100057.84;5070000;28;42149;-80
2021/11/06 15:14:34;;;;;;;5.33;3.63;;;;;;;10.15;70.63;100053.81;5070203;28;39152;-83
2021/11/06 15:17:02;;;;;;;6.60;4.17;;;;;;;10.03;71.09;100047.25;5052930;28;40718;-83
2021/11/06 15:19:30;;;;;;;8.00;4.67;;;;;;;9.92;71.58;100044.19;5099634;28;41588;-83
2021/11/06 15:21:58;;;;;;;4.73;3.60;;;;;;;9.84;72.08;100041.00;5074138;28;41310;-83
2021/11/06 15:24:26;;;;;;;6.87;4.00;;;;;;;9.75;72.33;100038.72;5073023;28;39439;-81
2021/11/06 15:26:55;;;;;;;6.40;4.30;;;;;;;9.59;72.55;100026.09;5090559;28;40645;-81
2021/11/06 15:29:25;;;;;;;5.97;3.83;;;;;;;9.42;72.88;100015.31;5072424;28;42709;-83
2021/11/06 15:31:54;;;;;;;5.00;4.03;;;;;;;9.40;73.18;100024.22;5091217;28;42693;-82
2021/11/06 15:34:22;;;;;;;6.43;3.87;;;;;;;9.31;73.34;100021.03;5089635;28;40600;-83
2021/11/06 15:36:50;;;;;;;5.43;3.53;;;;;;;9.23;74.01;100011.69;5073441;28;40503;-83
2021/11/06 15:39:17;;;;;;;5.67;3.90;;;;;;;9.28;73.63;100022.94;5072059;28;42057;-83
2021/11/06 15:41:45;;;;;;;5.77;3.30;;;;;;;9.22;73.86;100021.41;5089665;28;42025;-84
2021/11/06 15:44:13;;;;;;;7.03;4.30;;;;;;;9.16;74.18;100026.03;5089188;28;40156;-84
2021/11/06 15:46:42;;;;;;;6.43;4.60;;;;;;;9.08;74.52;100014.91;5072841;28;41751;-80
2021/11/06 15:49:13;;;;;;;8.37;4.97;;;;;;;9.00;74.73;100017.84;5068967;28;41389;-81
2021/11/06 15:51:48;;;;;;;8.63;4.57;;;;;;;8.92;75.00;100007.53;5058497;28;40998;-79
2021/11/06 15:54:16;;;;;;;7.80;4.73;;;;;;;8.80;75.11;100009.78;5088526;28;40219;-78
2021/11/06 15:56:44;;;;;;;9.50;5.27;;;;;;;8.63;75.19;100005.13;5102920;28;41912;-79
2021/11/06 15:59:12;;;;;;;9.53;5.17;;;;;;;8.57;75.54;100021.19;5103897;28;41919;-80
2021/11/06 16:01:43;;;;;;;5.90;4.17;;;;;;;8.44;75.54;100014.63;5083643;28;40916;-80
2021/11/06 16:04:11;;;;;;;8.50;4.33;;;;;;;8.33;75.97;100012.34;5084248;28;38615;-80
2021/11/06 16:06:39;;;;;;;6.53;4.60;;;;;;;8.14;76.66;99991.00;5075785;28;41091;-84
2021/11/06 16:09:07;;;;;;;6.97;4.73;;;;;;;8.13;76.39;100009.53;5074175;28;43150;-84
2021/11/06 16:11:36;;;;;;;9.00;4.30;;;;;;;8.02;76.64;100009.88;5090814;28;42919;-81
2021/11/06 16:14:04;;;;;;;5.77;4.03;;;;;;;7.96;76.98;100018.00;5073881;28;38849;-84
2021/11/06 16:16:34;;;;;;;7.43;4.23;;;;;;;7.87;77.50;100010.41;5080439;28;40575;-81
2021/11/06 16:19:05;;;;;;;10.33;4.73;;;;;;;7.68;77.58;99988.16;5069177;28;41670;-82
2021/11/06 16:21:32;;;;;;;9.00;5.67;;;;;;;7.73;77.58;100007.34;5070330;28;41443;-81
2021/11/06 16:24:00;;;;;;;7.00;4.50;;;;;;;7.67;78.37;100004.88;5069998;28;38925;-83
2021/11/06 16:26:29;;;;;;;7.50;4.37;;;;;;;7.61;78.32;100002.47;5056545;28;40657;-81
2021/11/06 16:28:59;;;;;;;11.10;4.93;;;;;;;7.51;78.39;100002.75;5052936;28;41675;-80
2021/11/06 16:31:30;;;;;;;9.40;4.90;;;;;;;7.46;78.39;99994.13;5053006;28;41225;-84
2021/11/06 16:33:59;;;;;;;6.73;4.43;;;;;;;7.40;78.47;99996.97;5052921;28;38943;-85
2021/11/06 16:36:29;;;;;;;8.07;4.70;;;;;;;7.25;78.55;99984.28;5053196;28;41685;-81
2021/11/06 16:38:57;;;;;;;7.63;4.77;;;;;;;7.25;79.14;99992.19;5053171;28;41794;-83
2021/11/06 16:41:25;;;;;;;8.67;5.07;;;;;;;7.12;79.61;99982.91;5052081;28;41328;-85
2021/11/06 16:43:52;;;;;;;11.03;5.43;;;;;;;7.07;79.48;99985.69;5068998;28;38934;-82
2021/11/06 16:46:23;;;;;;;9.37;5.50;;;;;;;7.10;79.97;99995.28;5051064;28;40936;-81
2021/11/06 16:48:51;;;;;;;10.60;5.33;;;;;;;7.10;79.86;99998.78;5085702;28;42037;-83
2021/11/06 16:51:21;;;;;;;11.00;6.60;;;;;;;6.97;79.85;99988.63;5052289;28;41111;-83
2021/11/06 16:53:50;;;;;;;11.27;5.83;;;;;;;6.69;79.71;99949.09;5052151;28;40053;-81
2021/11/06 16:56:18;;;;;;;11.53;6.13;;;;;;;6.84;80.91;99975.84;5076779;28;41186;-83
2021/11/06 16:58:46;;;;;;;12.60;6.63;;;;;;;6.79;80.97;99972.50;5092435;28;43765;-80
2021/11/06 17:01:13;;;;;;;6.80;5.47;;;;;;;6.90;81.01;100000.28;5076027;28;41127;-84
2021/11/06 17:03:41;;;;;;;13.30;6.70;;;;;;;6.84;81.43;99996.91;5074457;28;40148;-81
2021/11/06 17:06:13;;;;;;;14.43;6.40;;;;;;;6.79;81.13;100001.47;5074835;28;40478;-82
2021/11/06 17:11:24;;;;;;;7.27;4.57;;;;;;;6.74;81.25;100011.25;5071438;28;41225;-80
2021/11/06 17:13:54;;;;;;;11.90;6.23;;;;;;;6.69;81.47;100005.22;5072271;28;39314;-81
2021/11/06 17:16:24;;;;;;;10.33;5.67;;;;;;;6.67;81.79;100014.09;5092810;28;41590;-82
2021/11/06 17:18:52;;;;;;;11.37;5.20;;;;;;;6.57;82.00;100002.94;5090565;28;45471;-82
2021/11/06 17:21:20;;;;;;;8.60;4.83;;;;;;;6.59;81.73;100009.03;5074302;28;42080;-82
2021/11/06 17:23:48;;;;;;;11.27;6.33;;;;;;;6.56;82.17;100008.25;5091636;28;39229;-81
2021/11/06 17:26:17;;;;;;;11.30;6.47;;;;;;;6.46;81.94;100003.25;5091300;28;41639;-82
2021/11/06 17:28:46;;;;;;;11.30;5.80;;;;;;;6.43;82.06;100002.47;5073591;28;41942;-82
2021/11/06 17:31:14;;;;;;;12.47;6.53;;;;;;;6.44;82.25;100014.72;5076901;28;42095;-81
2021/11/06 17:33:42;;;;;;;12.33;5.30;;;;;;;6.40;81.95;100010.47;5074279;28;40343;-83
2021/11/06 17:36:10;;;;;;;11.77;6.57;;;;;;;6.37;82.15;100011.41;5091304;28;42501;-80
2021/11/06 17:38:37;;;;;;;13.23;6.73;;;;;;;6.20;82.48;99995.19;5091637;28;43322;-80
2021/11/06 17:41:04;;;;;;;10.90;6.27;;;;;;;6.20;83.11;99999.59;5075492;28;42111;-79
2021/11/06 17:43:32;;;;;;;11.53;6.33;;;;;;;6.26;83.31;100015.22;5071744;28;38229;-83
2021/11/06 17:46:01;;;;;;;11.40;5.90;;;;;;;6.24;82.67;100022.28;5091629;28;41668;-81
2021/11/06 17:48:32;;;;;;;13.27;7.00;;;;;;;6.20;82.50;100018.00;5074115;28;41921;-81
2021/11/06 17:51:06;;;;;;;11.30;6.43;;;;;;;6.15;82.93;100018.16;5058241;28;41321;-83
2021/11/06 17:53:41;;;;;;;11.37;6.07;;;;;;;5.98;82.77;99997.53;5054321;28;40365;-81
2021/11/06 17:56:09;;;;;;;10.73;6.13;;;;;;;6.05;82.62;100009.63;5068365;28;40810;-84
2021/11/06 17:58:36;;;;;;;9.43;5.80;;;;;;;6.04;82.73;100017.56;5090613;28;43253;-82
2021/11/06 18:01:06;;;;;;;10.63;6.20;;;;;;;6.01;82.48;100018.50;5091541;28;42436;-80
2021/11/06 18:03:34;;;;;;;11.70;6.73;;;;;;;6.00;83.28;100016.75;5092766;28;40028;-83
2021/11/06 18:06:02;;;;;;;12.63;7.40;;;;;;;6.01;83.41;100023.75;5091414;28;41311;-83
2021/11/06 18:08:29;;;;;;;11.73;6.77;;;;;;;5.98;83.22;100008.03;5074242;28;41935;-82
2021/11/06 18:10:57;;;;;;;14.00;6.10;;;;;;;5.99;83.61;100008.91;5091735;28;43094;-81
2021/11/06 18:13:25;;;;;;;11.50;5.30;;;;;;;6.01;83.44;100013.22;5074200;28;39972;-85
2021/11/06 18:15:53;;;;;;;10.53;5.27;;;;;;;5.90;83.51;99993.38;5091063;28;42567;-81
2021/11/06 18:18:22;;;;;;;12.23;5.97;;;;;;;6.01;83.46;100012.38;5074137;28;42079;-82
2021/11/06 18:20:49;;;;;;;13.07;6.60;;;;;;;5.99;83.68;100004.50;5108695;28;42155;-82
2021/11/06 18:23:17;;;;;;;10.47;5.67;;;;;;;5.99;83.75;99999.25;5091557;28;38975;-84
2021/11/06 18:25:44;;;;;;;12.80;6.40;;;;;;;5.87;83.53;99981.13;5108294;28;41518;-82
2021/11/06 18:28:12;;;;;;;11.67;5.83;;;;;;;5.97;84.06;100001.06;5073957;28;42013;-83
2021/11/06 18:30:39;;;;;;;10.47;5.53;;;;;;;5.93;83.73;100002.06;5073387;28;43182;-82
2021/11/06 18:33:07;;;;;;;12.47;5.73;;;;;;;5.89;83.80;100000.41;5091183;28;38646;-83
2021/11/06 18:35:36;;;;;;;12.13;6.67;;;;;;;5.81;83.91;99986.53;5091410;28;40802;-83
2021/11/06 18:38:04;;;;;;;13.23;6.03;;;;;;;5.72;84.08;99966.59;5090895;28;42242;-83
2021/11/06 18:40:32;;;;;;;11.10;5.90;;;;;;;5.81;83.64;99983.91;5090766;28;42006;-82
2021/11/06 18:42:59;;;;;;;9.60;5.17;;;;;;;5.83;83.98;99984.72;5090733;28;40677;-83
2021/11/06 18:45:32;;;;;;;11.63;4.83;;;;;;;5.71;83.81;99966.63;5073946;28;40976;-83
2021/11/06 18:48:06;;;;;;;9.50;5.67;;;;;;;5.67;83.79;99965.00;5089775;28;43204;-81
2021/11/06 18:50:34;;;;;;;12.73;5.50;;;;;;;5.76;84.00;99973.53;5084366;28;43148;-85
2021/11/06 18:53:04;;;;;;;10.00;4.60;;;;;;;5.64;84.58;99946.69;5072802;28;39275;-84
2021/11/06 18:55:31;;;;;;;10.97;5.37;;;;;;;5.73;84.54;99964.84;5090457;28;42633;-83
